Marshfield, WI (54472)

4:34 PM CDT on July 30, 2014 (GMT -0500)
Marshfield Municipal (KMFI) Elev 1276 ft | 44.64 °N, 90.19 °W | Change Station

Current weather conditions updated 40 minutes ago

Clear
Clear
74 °F
Feels Like 74 °F
N
9
Wind Variable Wind from WNW

Tomorrow is forecast to be Warmer than today.

Today
High -- | Low -- °F
--% Chance of Precip.
Yesterday
High -- | Low -- °F
Precip. -- in
5:44 AM 8:28 PM
Waxing Crescent, 14% visible
Pressure 30.03 in
Visibility 10.0 miles
Clouds Clear
Dew Point 51 °F
Humidity 45%
Rainfall 0.00 in
Snow Depth Not available.
UV 7 out of 12
Pollen 7.30 out of 12
Air Quality Not available.
Flu Activity Not available.
METAR KMFI 302054Z AUTO 30008KT 10SM CLR 23/11 A3003 RMK AO2 SLP169 T02330106 58010

More Conditions Fewer Conditions

Pressure 30.03 in
Visibility 10.0 miles
Clouds Clear
Dew Point 51 °F
Humidity 45%
Rainfall 0.00 in
Snow Depth Not available.
UV 7 out of 12
Pollen 7.30 out of 12
Air Quality Not available.
Flu Activity Not available.
METAR KMFI 302054Z AUTO 30008KT 10SM CLR 23/11 A3003 RMK AO2 SLP169 T02330106 58010

More Conditions Fewer Conditions

10-Day Weather Forecast

Almanac

Astronomy

Jul. 30, 2014 Rise Set
Actual Time 5:44 AM CDT 8:28 PM CDT
Civil Twilight 5:11 AM CDT 9:02 PM CDT
Nautical Twilight 4:28 AM CDT 9:44 PM CDT
Astronomical Twilight 3:38 AM CDT 10:33 PM CDT
Moon 9:27 AM CDT 9:59 PM CDT
Length of Visible Light 15h 51m
Length of Day
14h 43m
Tomorrow will be 2m 19s shorter.
Waxing Crescent, 14% of the Moon is Illuminated
Today
Waxing Crescent
Aug 3
First Quarter
Aug 10
Full
Aug 17
Last Quarter
Aug 25
New

Today's Extremes

State Highs State Lows

Community

WunderPhotos

Upload Photos

1,739,217 photos uploaded!

WunderBlogs® & News

Nearby

Snow Depth

Station Depth Elevation
No new snow has been reported.

Earthquake Activity

City Distance Mag. Time & Date
No recent earthquake activity has been reported nearby.
Minimum magnitude displayed is 2.5.

Coastal Water Temperatures

Place Temperature
No Stations Reporting

Nearby Weather Stations

Station Location Temp. Heat Index Dew Point Humidity Wind Precip. Elev Updated Type
WIDOT Pittsville - STH 13 @ STH 80, Pittsville, WI 75 °F 77 °F 47 °F 37% NW  at  4 mph 0.00 in / hr 1040 ft 3:17 PM CDT MADIS
WIDOT Abbotsford - STH 29 3 mi E of Abbo, Abbotsford, WI 72 °F 77 °F 55 °F 54% West  at  0 mph 0.00 in / hr 1400 ft 3:52 PM CDT MADIS

Show More Stations Show Fewer Stations